Time;durP1;ratioP1;P1;durP2;ratioP2;P2;SDS_P1;SDS_P2;PMS_P1;PMS_P2;Temp;Humidity;BMP_temperature;BMP_pressure;BME280_temperature;BME280_humidity;BME280_pressure;Samples;Min_cycle;Max_cycle;Signal;HPM_P1;HPM_P2
2022/11/24 00:01:19;;;;;;;7.13;6.53;;;8.30;99.90;;;;;;5087808;28;20452;-80
2022/11/24 00:03:53;;;;;;;10.67;6.90;;;8.30;1.00;;;;;;5097940;27;20541;-82
2022/11/24 00:06:22;;;;;;;7.83;7.23;;;8.30;1.00;;;;;;5104312;28;20470;-81
2022/11/24 00:08:51;;;;;;;6.97;6.37;;;8.40;99.90;;;;;;5097960;27;20448;-82
2022/11/24 00:11:21;;;;;;;7.37;6.90;;;8.40;99.90;;;;;;5096429;28;20472;-81
2022/11/24 00:13:50;;;;;;;7.20;5.90;;;8.40;99.90;;;;;;5094768;28;20524;-82
2022/11/24 00:16:21;;;;;;;6.70;6.17;;;8.30;99.90;;;;;;5091221;28;20448;-83
2022/11/24 00:18:53;;;;;;;8.23;6.23;;;8.20;1.00;;;;;;5095947;28;20504;-83
2022/11/24 00:21:22;;;;;;;6.40;6.00;;;8.20;1.00;;;;;;5101273;27;20446;-83
2022/11/24 00:23:51;;;;;;;6.37;5.87;;;8.20;99.90;;;;;;5095708;28;21028;-84
2022/11/24 00:26:21;;;;;;;6.90;6.30;;;8.30;1.00;;;;;;5102786;27;20526;-81
2022/11/24 00:28:51;;;;;;;8.37;6.90;;;8.30;99.90;;;;;;5098178;28;20452;-82
2022/11/24 00:31:21;;;;;;;8.67;6.60;;;8.30;99.90;;;;;;5100694;28;20487;-83
2022/11/24 00:33:52;;;;;;;6.27;5.87;;;8.30;99.90;;;;;;5097898;28;20488;-83
2022/11/24 00:36:22;;;;;;;7.90;6.30;;;8.20;99.90;;;;;;5095458;28;20455;-81
2022/11/24 00:38:54;;;;;;;7.33;6.70;;;8.30;1.00;;;;;;5097058;27;21167;-83
2022/11/24 00:41:23;;;;;;;7.50;6.80;;;8.20;1.00;;;;;;5112574;27;20522;-82
2022/11/24 00:43:51;;;;;;;6.53;6.10;;;8.30;1.00;;;;;;5097818;27;20569;-81
2022/11/24 00:46:20;;;;;;;6.87;6.50;;;8.30;1.00;;;;;;5096796;28;20450;-81
2022/11/24 00:48:50;;;;;;;7.13;6.53;;;8.30;1.00;;;;;;5093386;27;20504;-83
2022/11/24 00:51:19;;;;;;;6.67;6.17;;;8.40;1.00;;;;;;5095004;28;20577;-81
2022/11/24 00:53:48;;;;;;;10.37;6.27;;;8.40;1.00;;;;;;5092686;28;20488;-82
2022/11/24 00:56:16;;;;;;;6.60;6.00;;;8.30;1.00;;;;;;5093860;27;20517;-83
2022/11/24 00:58:44;;;;;;;6.07;5.87;;;8.30;1.00;;;;;;5091534;27;20472;-82
2022/11/24 01:01:15;;;;;;;6.53;6.23;;;8.30;1.00;;;;;;5095963;28;20926;-80
2022/11/24 01:03:45;;;;;;;6.60;6.20;;;8.30;1.00;;;;;;5109029;27;20482;-80
2022/11/24 01:06:17;;;;;;;7.07;6.47;;;8.30;1.00;;;;;;5094342;28;20889;-82
2022/11/24 01:08:46;;;;;;;8.10;6.20;;;8.30;53.10;;;;;;5092985;28;20524;-81
2022/11/24 01:11:17;;;;;;;6.67;6.17;;;8.30;99.90;;;;;;5093089;27;20476;-81
2022/11/24 01:13:46;;;;;;;8.37;7.77;;;8.30;99.90;;;;;;5094387;28;20479;-82
2022/11/24 01:16:17;;;;;;;6.60;6.17;;;8.30;77.10;;;;;;5096449;28;20482;-82
2022/11/24 01:18:46;;;;;;;7.10;6.60;;;8.30;37.40;;;;;;5092251;27;20467;-82
2022/11/24 01:21:16;;;;;;;7.00;6.57;;;8.40;1.00;;;;;;5096654;28;22699;-82
2022/11/24 01:23:44;;;;;;;7.67;6.97;;;8.40;1.00;;;;;;5094673;28;20481;-82
2022/11/24 01:26:15;;;;;;;7.03;6.50;;;8.40;1.00;;;;;;5094402;27;20573;-81
2022/11/24 01:28:43;;;;;;;6.87;6.57;;;8.20;1.00;;;;;;5099741;28;20443;-81
2022/11/24 01:31:15;;;;;;;6.90;6.60;;;8.20;1.00;;;;;;5092173;28;20491;-81
2022/11/24 01:33:44;;;;;;;7.10;6.60;;;8.20;1.00;;;;;;5089897;28;20471;-81
2022/11/24 01:36:12;;;;;;;7.27;6.77;;;8.30;1.00;;;;;;5092532;27;20451;-82
2022/11/24 01:38:42;;;;;;;7.00;6.50;;;8.30;1.00;;;;;;5092626;28;20462;-80
2022/11/24 01:41:12;;;;;;;6.97;6.40;;;8.40;99.90;;;;;;5092570;28;20986;-81
2022/11/24 01:43:41;;;;;;;6.47;6.27;;;8.40;99.90;;;;;;5090689;28;20475;-82
2022/11/24 01:46:17;;;;;;;7.13;6.47;;;8.40;99.90;;;;;;5094403;28;20460;-81
2022/11/24 01:48:51;;;;;;;6.70;6.20;;;8.40;1.00;;;;;;5099648;28;20509;-82
2022/11/24 01:51:23;;;;;;;7.00;6.60;;;8.40;1.00;;;;;;5098366;28;20487;-82
2022/11/24 01:53:57;;;;;;;7.03;6.60;;;8.40;1.00;;;;;;5103375;28;20533;-81
2022/11/24 01:56:26;;;;;;;6.80;6.40;;;8.40;1.00;;;;;;5095690;27;20986;-81
2022/11/24 01:58:59;;;;;;;6.70;6.40;;;8.40;1.00;;;;;;5091987;28;20482;-81
2022/11/24 02:01:28;;;;;;;7.00;6.70;;;8.40;1.00;;;;;;5088499;28;20446;-80
2022/11/24 02:03:57;;;;;;;6.93;6.53;;;8.50;1.00;;;;;;5096228;28;21092;-82
2022/11/24 02:06:27;;;;;;;6.70;6.40;;;8.50;1.00;;;;;;5097782;28;20456;-82
2022/11/24 02:09:01;;;;;;;7.20;6.80;;;8.50;99.90;;;;;;5096897;28;20460;-82
2022/11/24 02:11:34;;;;;;;8.30;7.47;;;8.40;99.90;;;;;;5098678;28;20540;-82
2022/11/24 02:14:05;;;;;;;7.07;6.77;;;8.40;99.90;;;;;;5094536;28;20484;-82
2022/11/24 02:16:35;;;;;;;7.13;6.60;;;8.40;1.00;;;;;;5089911;28;20467;-81
2022/11/24 02:19:07;;;;;;;6.93;6.50;;;8.40;1.00;;;;;;5090782;28;20448;-80
2022/11/24 02:21:35;;;;;;;6.73;6.33;;;8.30;1.00;;;;;;5088552;28;20453;-80
2022/11/24 02:24:12;;;;;;;7.03;6.77;;;8.30;1.00;;;;;;5088551;28;20996;-82
2022/11/24 02:26:44;;;;;;;7.37;7.00;;;8.30;1.00;;;;;;5093390;28;22466;-81
2022/11/24 02:29:14;;;;;;;6.57;6.20;;;8.30;1.00;;;;;;5095902;28;20536;-83
2022/11/24 02:31:46;;;;;;;7.43;6.73;;;8.30;1.00;;;;;;5096597;28;20503;-82
2022/11/24 02:34:15;;;;;;;7.17;6.67;;;8.30;1.00;;;;;;5091911;28;20460;-82
2022/11/24 02:36:43;;;;;;;6.90;6.50;;;8.30;1.00;;;;;;5090054;28;20531;-83
2022/11/24 02:39:12;;;;;;;9.80;6.80;;;8.30;1.00;;;;;;5094331;28;20975;-82
2022/11/24 02:41:44;;;;;;;6.57;6.07;;;8.30;1.00;;;;;;5089887;28;20508;-81
2022/11/24 02:44:16;;;;;;;7.53;6.73;;;8.30;1.00;;;;;;5091718;28;20498;-81
2022/11/24 02:46:44;;;;;;;5.90;5.70;;;8.20;1.00;;;;;;5089547;28;20452;-81
2022/11/24 02:49:12;;;;;;;6.93;6.40;;;8.20;1.00;;;;;;5090095;28;20492;-82
2022/11/24 02:51:40;;;;;;;7.97;7.57;;;8.10;1.00;;;;;;5092575;28;20483;-81
2022/11/24 02:54:09;;;;;;;6.47;5.90;;;8.30;1.00;;;;;;5092253;28;20482;-82
2022/11/24 02:56:37;;;;;;;5.93;5.63;;;8.20;1.00;;;;;;5089701;28;20497;-80
2022/11/24 02:59:06;;;;;;;6.53;6.07;;;8.10;1.00;;;;;;5092061;28;20563;-81
2022/11/24 03:01:34;;;;;;;7.40;6.87;;;8.20;1.00;;;;;;5090846;28;20450;-81
2022/11/24 03:04:03;;;;;;;6.00;5.80;;;8.20;1.00;;;;;;5084899;28;20479;-81
2022/11/24 03:06:31;;;;;;;6.27;5.97;;;8.20;1.00;;;;;;5092612;28;22094;-80
2022/11/24 03:08:59;;;;;;;6.67;6.20;;;8.20;97.20;;;;;;5089718;28;20540;-82
2022/11/24 03:11:27;;;;;;;5.73;5.47;;;8.20;99.90;;;;;;5095274;27;20545;-81
2022/11/24 03:13:55;;;;;;;6.80;6.27;;;8.20;99.90;;;;;;5093273;28;20510;-81
2022/11/24 03:16:25;;;;;;;7.40;6.77;;;8.10;1.00;;;;;;5091396;27;20456;-81
2022/11/24 03:18:54;;;;;;;6.33;6.00;;;8.20;1.00;;;;;;5091677;28;20449;-81
2022/11/24 03:21:22;;;;;;;6.30;6.10;;;8.20;1.00;;;;;;5091658;27;20531;-81
2022/11/24 03:23:50;;;;;;;6.90;6.40;;;8.20;1.00;;;;;;5087075;28;20491;-82
2022/11/24 03:26:21;;;;;;;7.10;6.60;;;8.10;1.00;;;;;;5093505;27;20467;-82
2022/11/24 03:28:49;;;;;;;6.90;6.50;;;8.10;1.00;;;;;;5090856;28;20461;-80
2022/11/24 03:31:18;;;;;;;7.00;6.53;;;8.10;1.00;;;;;;5094660;27;20516;-83
2022/11/24 03:33:48;;;;;;;7.27;6.80;;;8.00;99.90;;;;;;5094872;27;20483;-81
2022/11/24 03:36:16;;;;;;;6.60;6.30;;;8.00;99.90;;;;;;5090577;27;20536;-83
2022/11/24 03:38:45;;;;;;;7.30;6.80;;;8.00;99.90;;;;;;5089486;28;20493;-83
2022/11/24 03:41:13;;;;;;;6.77;6.43;;;8.00;1.00;;;;;;5092312;28;20450;-81
2022/11/24 03:43:41;;;;;;;7.97;7.20;;;7.90;99.90;;;;;;5089586;28;21015;-81
2022/11/24 03:46:11;;;;;;;7.53;6.50;;;8.00;1.00;;;;;;5094800;28;20451;-81
2022/11/24 03:48:40;;;;;;;6.33;6.10;;;8.00;1.00;;;;;;5096182;28;20845;-81
2022/11/24 03:51:10;;;;;;;7.33;6.83;;;8.00;99.90;;;;;;5100154;28;20459;-81
2022/11/24 03:53:38;;;;;;;6.60;6.40;;;7.90;1.00;;;;;;5105279;27;20549;-83
2022/11/24 03:56:07;;;;;;;7.40;6.90;;;8.00;1.00;;;;;;5103534;27;20540;-82
2022/11/24 03:58:35;;;;;;;7.17;6.67;;;8.00;99.90;;;;;;5101728;27;20488;-82
2022/11/24 04:01:03;;;;;;;7.57;7.07;;;8.10;1.00;;;;;;5093244;27;20462;-82
2022/11/24 04:03:32;;;;;;;7.13;6.53;;;8.00;1.00;;;;;;5098427;28;20451;-81
2022/11/24 04:06:00;;;;;;;7.87;7.13;;;8.00;1.00;;;;;;5093310;27;20472;-80
2022/11/24 04:08:30;;;;;;;7.00;6.60;;;8.00;1.00;;;;;;5095364;27;20456;-82
2022/11/24 04:10:58;;;;;;;7.63;7.33;;;8.00;94.70;;;;;;5092588;28;22695;-81
2022/11/24 04:13:25;;;;;;;7.60;7.20;;;8.00;78.30;;;;;;5095763;28;20477;-81
2022/11/24 04:15:54;;;;;;;8.03;7.50;;;8.00;99.90;;;;;;5094799;28;21152;-80
2022/11/24 04:18:22;;;;;;;8.20;7.40;;;8.00;25.40;;;;;;5088311;27;20463;-82
2022/11/24 04:20:51;;;;;;;7.30;6.87;;;8.00;90.60;;;;;;5090183;28;20553;-82
2022/11/24 04:23:20;;;;;;;7.53;6.93;;;8.10;1.00;;;;;;5092135;28;20446;-81
2022/11/24 04:25:49;;;;;;;8.17;7.50;;;8.00;1.00;;;;;;5092656;28;20467;-81
2022/11/24 04:28:18;;;;;;;7.83;7.33;;;8.10;1.00;;;;;;5092230;27;20447;-81
2022/11/24 04:30:46;;;;;;;7.63;7.20;;;8.10;1.00;;;;;;5091880;28;20458;-80
2022/11/24 04:33:14;;;;;;;7.70;7.17;;;8.20;1.00;;;;;;5096587;28;20518;-83
2022/11/24 04:35:42;;;;;;;8.20;7.40;;;8.10;1.00;;;;;;5094704;28;21290;-81
2022/11/24 04:38:10;;;;;;;8.17;7.60;;;8.20;99.90;;;;;;5088798;28;20536;-81
2022/11/24 04:40:39;;;;;;;8.20;7.70;;;8.10;99.90;;;;;;5087946;28;20451;-81
2022/11/24 04:43:10;;;;;;;7.73;7.23;;;8.00;99.90;;;;;;5084758;28;21281;-81
2022/11/24 04:45:39;;;;;;;7.50;7.00;;;8.10;99.90;;;;;;5089071;28;20485;-81
2022/11/24 04:48:07;;;;;;;8.13;7.00;;;8.00;99.90;;;;;;5087305;28;20454;-82
2022/11/24 04:50:36;;;;;;;8.10;7.47;;;8.00;1.00;;;;;;5110967;27;20455;-81
2022/11/24 04:53:04;;;;;;;8.47;7.60;;;8.00;1.00;;;;;;5102176;27;20475;-82
2022/11/24 04:55:32;;;;;;;8.90;8.07;;;8.00;99.90;;;;;;5090926;28;20484;-81
2022/11/24 04:58:01;;;;;;;8.33;7.63;;;8.00;99.90;;;;;;5091767;28;20468;-82
2022/11/24 05:00:31;;;;;;;7.83;7.40;;;8.00;99.90;;;;;;5090778;28;20461;-81
2022/11/24 05:02:59;;;;;;;7.63;7.13;;;7.90;99.90;;;;;;5092037;27;20448;-82
2022/11/24 05:05:27;;;;;;;17.57;8.90;;;8.00;99.90;;;;;;5093946;27;20525;-81
2022/11/24 05:07:55;;;;;;;7.60;7.10;;;7.90;99.90;;;;;;5104481;27;20459;-80
2022/11/24 05:10:36;;;;;;;9.07;7.30;;;8.00;99.90;;;;;;5089348;27;20550;-79
2022/11/24 05:13:06;;;;;;;8.70;7.93;;;7.90;99.90;;;;;;5089447;28;20482;-77
2022/11/24 05:15:37;;;;;;;9.43;8.83;;;8.00;1.00;;;;;;5093522;27;20587;-79
2022/11/24 05:18:06;;;;;;;7.47;6.93;;;7.90;99.90;;;;;;5085925;27;20991;-81
2022/11/24 05:20:35;;;;;;;7.70;7.10;;;7.80;99.90;;;;;;5100154;27;20512;-82
2022/11/24 05:23:04;;;;;;;7.93;7.30;;;7.70;99.90;;;;;;5098184;28;20524;-81
2022/11/24 05:25:33;;;;;;;7.47;6.80;;;7.70;1.00;;;;;;5092519;28;21150;-81
2022/11/24 05:28:02;;;;;;;8.80;7.57;;;7.70;1.00;;;;;;5098517;28;20452;-81
2022/11/24 05:30:31;;;;;;;11.40;7.07;;;7.70;99.90;;;;;;5095532;27;20519;-81
2022/11/24 05:33:05;;;;;;;8.00;7.57;;;7.70;45.80;;;;;;5093974;27;20560;-81
2022/11/24 05:35:34;;;;;;;8.30;7.57;;;7.70;99.90;;;;;;5101386;27;20470;-81
2022/11/24 05:38:02;;;;;;;7.67;6.87;;;7.60;99.90;;;;;;5096802;27;20539;-82
2022/11/24 05:43:14;;;;;;;7.50;6.90;;;7.60;1.00;;;;;;5094079;28;20506;-83
2022/11/24 05:45:43;;;;;;;7.40;6.80;;;7.60;99.90;;;;;;5086455;28;20755;-84
2022/11/24 05:48:14;;;;;;;7.73;7.23;;;7.60;99.90;;;;;;5094383;27;20544;-84
2022/11/24 05:50:43;;;;;;;7.30;6.80;;;7.60;99.90;;;;;;5095918;28;20458;-84
2022/11/24 05:53:13;;;;;;;7.90;7.17;;;7.60;99.90;;;;;;5098886;27;20516;-85
2022/11/24 05:55:42;;;;;;;8.27;7.63;;;7.70;99.90;;;;;;5107470;27;20467;-84
2022/11/24 05:58:10;;;;;;;8.90;7.27;;;7.70;1.00;;;;;;5093942;27;20451;-84
2022/11/24 06:00:39;;;;;;;11.07;7.80;;;7.70;99.90;;;;;;5095757;28;20475;-85
2022/11/24 06:03:10;;;;;;;8.67;6.80;;;7.70;99.90;;;;;;5098386;27;20466;-84
2022/11/24 06:05:39;;;;;;;14.50;10.27;;;7.70;1.00;;;;;;5100703;27;20500;-84
2022/11/24 06:08:07;;;;;;;8.53;7.93;;;7.80;1.00;;;;;;5093690;28;20458;-82
2022/11/24 06:10:36;;;;;;;12.03;8.10;;;7.80;99.90;;;;;;5100354;27;20990;-83
2022/11/24 06:13:06;;;;;;;7.93;7.33;;;7.80;99.90;;;;;;5099476;28;20455;-84
2022/11/24 06:15:36;;;;;;;8.40;7.80;;;7.80;99.90;;;;;;5090861;28;20486;-82
2022/11/24 06:18:05;;;;;;;9.10;8.23;;;7.80;63.20;;;;;;5096886;28;20449;-84
2022/11/24 06:20:34;;;;;;;8.33;7.53;;;7.90;1.00;;;;;;5098268;28;20549;-84
2022/11/24 06:23:03;;;;;;;7.93;7.30;;;7.80;99.90;;;;;;5097651;28;20457;-84
2022/11/24 06:25:32;;;;;;;8.13;7.33;;;7.70;1.00;;;;;;5096221;28;20481;-84
2022/11/24 06:28:03;;;;;;;8.93;8.10;;;7.70;99.90;;;;;;5092828;28;20826;-84
2022/11/24 06:30:32;;;;;;;8.63;7.30;;;7.70;99.90;;;;;;5088102;28;20465;-84
2022/11/24 06:33:02;;;;;;;10.07;8.43;;;7.60;99.90;;;;;;5093559;28;20450;-83
2022/11/24 06:35:30;;;;;;;8.97;7.83;;;7.60;1.00;;;;;;5091627;28;20481;-82
2022/11/24 06:37:59;;;;;;;8.87;8.10;;;7.70;99.90;;;;;;5091239;28;20467;-84
2022/11/24 06:40:29;;;;;;;9.33;8.40;;;7.70;22.80;;;;;;5096218;28;20450;-84
2022/11/24 06:42:57;;;;;;;12.10;8.80;;;7.80;1.00;;;;;;5100139;28;20465;-82
2022/11/24 06:45:25;;;;;;;11.10;8.30;;;7.80;99.90;;;;;;5096859;27;20478;-83
2022/11/24 06:47:54;;;;;;;8.40;7.90;;;7.80;1.00;;;;;;5096254;27;21222;-82
2022/11/24 06:50:23;;;;;;;8.60;7.97;;;7.80;1.00;;;;;;5099550;28;20458;-83
2022/11/24 06:52:57;;;;;;;9.37;8.50;;;7.90;1.00;;;;;;5100619;28;20462;-83
2022/11/24 06:55:25;;;;;;;10.30;8.40;;;7.80;99.90;;;;;;5101604;27;20493;-81
2022/11/24 06:57:55;;;;;;;11.80;8.30;;;8.00;1.00;;;;;;5098034;28;20541;-82
2022/11/24 07:00:23;;;;;;;9.83;8.93;;;7.90;7.60;;;;;;5097636;28;20533;-84
2022/11/24 07:02:51;;;;;;;9.37;8.23;;;8.00;99.90;;;;;;5096512;27;20446;-83
2022/11/24 07:05:20;;;;;;;9.90;9.03;;;7.90;30.70;;;;;;5103792;27;20487;-84
2022/11/24 07:07:48;;;;;;;9.67;8.80;;;8.10;99.90;;;;;;5103743;28;20470;-84
2022/11/24 07:10:18;;;;;;;10.63;9.23;;;8.00;99.90;;;;;;5098842;27;20777;-87
2022/11/24 07:12:46;;;;;;;9.80;9.10;;;8.00;99.90;;;;;;5100846;28;21017;-85
2022/11/24 07:15:16;;;;;;;9.87;8.60;;;8.00;1.00;;;;;;5100510;27;20551;-87
2022/11/24 07:17:45;;;;;;;9.60;8.87;;;7.90;1.00;;;;;;5095041;27;20463;-86
2022/11/24 07:20:13;;;;;;;10.30;9.47;;;8.00;1.00;;;;;;5100427;27;20461;-85
2022/11/24 07:22:41;;;;;;;11.13;9.50;;;8.00;1.00;;;;;;5098762;27;20592;-88
2022/11/24 07:25:10;;;;;;;9.23;8.63;;;8.10;99.90;;;;;;5103857;28;20507;-87
2022/11/24 07:27:38;;;;;;;10.57;9.77;;;8.10;1.00;;;;;;5100658;28;20473;-86
2022/11/24 07:30:08;;;;;;;10.70;9.70;;;8.10;99.90;;;;;;5096400;28;20456;-86
2022/11/24 07:32:38;;;;;;;10.50;9.77;;;8.10;36.50;;;;;;5099914;27;20465;-85
2022/11/24 07:35:07;;;;;;;10.50;9.90;;;8.10;1.00;;;;;;5103146;27;20529;-86
2022/11/24 07:37:35;;;;;;;10.60;9.90;;;8.20;99.90;;;;;;5105632;27;20460;-85
2022/11/24 07:40:03;;;;;;;10.90;10.03;;;8.20;1.00;;;;;;5100185;28;20447;-85
2022/11/24 07:42:32;;;;;;;10.43;9.43;;;8.10;1.00;;;;;;5103349;27;20466;-85
2022/11/24 07:45:00;;;;;;;10.50;9.80;;;8.20;1.00;;;;;;5118910;27;21185;-86
2022/11/24 07:47:28;;;;;;;11.30;10.60;;;8.20;99.90;;;;;;5101640;27;20459;-85
2022/11/24 07:49:58;;;;;;;11.10;10.50;;;8.20;1.00;;;;;;5098951;27;20466;-84
2022/11/24 07:52:26;;;;;;;12.13;11.10;;;8.20;1.00;;;;;;5098654;28;20462;-86
2022/11/24 07:54:54;;;;;;;10.57;9.97;;;8.20;99.90;;;;;;5096442;27;20474;-87
2022/11/24 07:57:23;;;;;;;10.77;10.07;;;8.20;64.30;;;;;;5104733;27;20475;-87
2022/11/24 07:59:51;;;;;;;10.90;10.30;;;8.10;99.90;;;;;;5107842;27;20464;-85
2022/11/24 08:02:19;;;;;;;11.00;10.27;;;8.10;1.00;;;;;;5097562;28;20435;-86
2022/11/24 08:04:48;;;;;;;11.80;10.77;;;8.10;1.00;;;;;;5100504;27;20470;-85
2022/11/24 08:07:17;;;;;;;11.70;11.00;;;8.20;99.90;;;;;;5093590;27;20456;-87
2022/11/24 08:09:45;;;;;;;11.37;10.53;;;8.20;99.90;;;;;;5098813;28;20491;-87
2022/11/24 08:12:16;;;;;;;11.57;10.60;;;8.20;99.90;;;;;;5098014;27;20456;-86
2022/11/24 08:14:44;;;;;;;10.17;9.63;;;8.20;99.90;;;;;;5101502;28;20493;-86
2022/11/24 08:17:12;;;;;;;9.27;8.77;;;8.10;99.90;;;;;;5102967;28;20470;-86
2022/11/24 08:19:43;;;;;;;9.30;9.00;;;8.10;1.00;;;;;;5102272;27;20963;-86
2022/11/24 08:22:11;;;;;;;10.63;9.93;;;8.10;38.80;;;;;;5100961;27;20443;-86
2022/11/24 08:24:45;;;;;;;11.07;10.23;;;8.10;99.90;;;;;;5102902;28;20476;-86
2022/11/24 08:27:15;;;;;;;10.00;9.33;;;8.20;99.90;;;;;;5100211;28;20444;-86
2022/11/24 08:29:43;;;;;;;11.50;10.47;;;8.20;99.90;;;;;;5098801;28;20463;-85
2022/11/24 08:32:12;;;;;;;10.63;10.00;;;8.30;99.90;;;;;;5102237;28;20446;-86
2022/11/24 08:34:48;;;;;;;10.07;9.30;;;8.30;99.90;;;;;;5103105;27;20487;-85
2022/11/24 08:37:17;;;;;;;10.40;9.50;;;8.30;17.10;;;;;;5106512;28;20454;-86
2022/11/24 08:39:46;;;;;;;10.10;9.70;;;8.30;1.00;;;;;;5104307;28;20455;-87
2022/11/24 08:42:14;;;;;;;9.63;9.43;;;8.20;1.00;;;;;;5104146;28;20465;-87
2022/11/24 08:44:43;;;;;;;9.37;8.97;;;8.20;99.90;;;;;;5092511;28;20471;-87
2022/11/24 08:47:11;;;;;;;9.00;8.70;;;8.20;1.00;;;;;;5095370;28;20461;-86
2022/11/24 08:49:40;;;;;;;8.97;8.60;;;8.30;99.90;;;;;;5100176;28;20456;-87
2022/11/24 08:52:09;;;;;;;8.80;8.60;;;8.30;59.80;;;;;;5093284;27;20518;-87
2022/11/24 08:54:37;;;;;;;8.20;8.00;;;8.40;1.00;;;;;;5099354;27;20485;-87
2022/11/24 08:57:07;;;;;;;7.53;7.43;;;8.30;1.00;;;;;;5104071;28;20471;-86
2022/11/24 08:59:35;;;;;;;7.50;7.30;;;8.40;99.90;;;;;;5098312;28;20460;-86
2022/11/24 09:02:04;;;;;;;7.70;7.50;;;8.40;1.00;;;;;;5101282;27;20811;-87
2022/11/24 09:04:33;;;;;;;7.77;7.57;;;8.50;1.00;;;;;;5093289;27;20529;-85
2022/11/24 09:07:01;;;;;;;7.90;7.70;;;8.60;1.00;;;;;;5095438;28;20997;-85
2022/11/24 09:09:30;;;;;;;8.47;8.27;;;8.60;1.00;;;;;;5097278;27;20452;-86
2022/11/24 09:11:58;;;;;;;8.13;7.90;;;8.50;99.90;;;;;;5100584;27;20457;-85
2022/11/24 09:14:28;;;;;;;7.77;7.67;;;8.60;1.00;;;;;;5106488;27;20478;-86
2022/11/24 09:16:56;;;;;;;7.90;7.80;;;8.70;99.90;;;;;;5101207;27;20491;-86
2022/11/24 09:19:25;;;;;;;7.90;7.70;;;8.80;1.00;;;;;;5096397;27;20997;-86
2022/11/24 09:21:53;;;;;;;8.90;8.70;;;8.70;99.90;;;;;;5099752;28;20826;-87
2022/11/24 09:24:21;;;;;;;8.50;8.30;;;8.60;1.00;;;;;;5093196;27;20891;-85
2022/11/24 09:26:50;;;;;;;12.53;8.13;;;8.70;1.00;;;;;;5097193;28;20539;-87
2022/11/24 09:29:18;;;;;;;8.03;7.70;;;8.70;1.00;;;;;;5098248;27;20475;-86
2022/11/24 09:31:47;;;;;;;7.50;7.40;;;8.70;99.90;;;;;;5097860;28;20528;-85
2022/11/24 09:34:16;;;;;;;7.83;7.67;;;8.70;99.90;;;;;;5092243;27;20476;-86
2022/11/24 09:36:45;;;;;;;8.30;8.10;;;8.70;99.90;;;;;;5087857;27;20478;-87
2022/11/24 09:39:13;;;;;;;7.40;7.20;;;8.70;99.90;;;;;;5092324;28;20500;-87
2022/11/24 09:42:07;;;;;;;6.70;6.60;;;8.70;99.90;;;;;;5093218;28;20558;-86
2022/11/24 09:44:57;;;;;;;6.87;6.77;;;8.70;99.90;;;;;;5092269;28;20477;-85
2022/11/24 09:47:38;;;;;;;7.10;6.50;;;8.80;99.90;;;;;;5099676;27;20460;-87
2022/11/24 09:50:12;;;;;;;6.80;6.70;;;8.80;99.90;;;;;;5097702;28;20505;-85
2022/11/24 09:52:46;;;;;;;6.70;6.60;;;8.60;24.60;;;;;;5098520;27;20442;-86
2022/11/24 09:55:36;;;;;;;6.77;6.67;;;8.60;99.90;;;;;;5098522;28;20496;-86
2022/11/24 09:58:35;;;;;;;7.27;7.17;;;8.60;99.90;;;;;;5096619;28;20460;-85
2022/11/24 10:01:07;;;;;;;6.80;6.60;;;8.60;99.90;;;;;;5099288;27;20444;-85
2022/11/24 10:03:42;;;;;;;7.00;6.90;;;8.50;99.90;;;;;;5096328;27;20457;-85
2022/11/24 10:06:26;;;;;;;6.73;6.63;;;8.60;1.00;;;;;;5101152;28;20487;-85
2022/11/24 10:09:09;;;;;;;7.10;6.97;;;8.50;1.00;;;;;;5096082;27;20527;-86
2022/11/24 10:11:44;;;;;;;8.10;7.90;;;8.60;99.90;;;;;;5101555;27;20449;-86
2022/11/24 10:14:35;;;;;;;7.80;7.70;;;8.70;1.00;;;;;;5093565;27;20464;-85
2022/11/24 10:17:13;;;;;;;8.20;7.80;;;9.10;99.90;;;;;;5093680;28;20493;-86
2022/11/24 10:19:48;;;;;;;8.53;8.33;;;9.00;99.90;;;;;;5094413;28;20965;-85
2022/11/24 10:22:41;;;;;;;8.30;8.10;;;9.10;1.00;;;;;;5093712;28;20547;-86
2022/11/24 10:25:24;;;;;;;8.50;8.10;;;9.10;99.90;;;;;;5094254;28;20566;-87
2022/11/24 10:27:58;;;;;;;9.70;9.40;;;8.90;99.90;;;;;;5089841;28;20948;-87
2022/11/24 10:30:27;;;;;;;9.00;8.90;;;9.80;1.00;;;;;;5093341;28;20547;-86
2022/11/24 10:32:59;;;;;;;9.77;9.50;;;11.20;99.90;;;;;;5094107;28;20509;-87
2022/11/24 10:35:37;;;;;;;8.03;7.93;;;10.50;97.10;;;;;;5100849;28;20517;-86
2022/11/24 10:38:16;;;;;;;8.47;8.27;;;10.20;99.90;;;;;;5097070;28;20448;-86
2022/11/24 10:40:48;;;;;;;8.40;8.20;;;10.40;99.90;;;;;;5090280;28;20445;-88
2022/11/24 10:43:26;;;;;;;8.70;8.40;;;10.90;99.90;;;;;;5092236;28;20448;-86
2022/11/24 10:45:55;;;;;;;8.77;8.60;;;10.90;99.90;;;;;;5088473;28;20482;-86
2022/11/24 10:48:26;;;;;;;9.10;8.90;;;11.00;79.70;;;;;;5093991;28;21040;-86
2022/11/24 10:51:06;;;;;;;8.70;8.60;;;11.30;71.10;;;;;;5087948;28;20808;-85
2022/11/24 10:53:38;;;;;;;8.90;8.60;;;11.10;15.70;;;;;;5092761;28;20471;-87
2022/11/24 10:56:06;;;;;;;7.77;7.47;;;10.60;1.00;;;;;;5092409;28;20991;-86
2022/11/24 10:58:36;;;;;;;7.43;7.33;;;10.10;57.10;;;;;;5090250;28;20471;-87
2022/11/24 11:01:21;;;;;;;7.70;7.50;;;10.00;99.90;;;;;;5090999;28;20443;-87
2022/11/24 11:03:52;;;;;;;8.03;7.83;;;10.00;99.90;;;;;;5089357;28;20980;-87
2022/11/24 11:06:25;;;;;;;8.20;8.00;;;10.60;99.90;;;;;;5094176;28;20463;-86
2022/11/24 11:09:17;;;;;;;7.60;7.30;;;12.10;1.00;;;;;;5096402;28;20458;-87
2022/11/24 11:11:47;;;;;;;8.27;7.97;;;14.90;99.90;;;;;;5097542;28;20468;-86
2022/11/24 11:14:29;;;;;;;8.20;8.00;;;15.10;99.90;;;;;;5096578;28;20508;-86
2022/11/24 11:16:58;;;;;;;7.80;7.60;;;13.00;99.90;;;;;;5093466;28;20934;-86
2022/11/24 11:19:36;;;;;;;8.07;7.87;;;12.40;99.90;;;;;;5094705;28;21010;-86
2022/11/24 11:22:28;;;;;;;7.83;7.63;;;12.30;99.90;;;;;;5094689;28;20845;-86
2022/11/24 11:25:07;;;;;;;8.10;7.70;;;12.00;99.90;;;;;;5092946;28;20506;-86
2022/11/24 11:27:35;;;;;;;8.20;7.90;;;11.70;99.90;;;;;;5100550;28;20457;-87
2022/11/24 11:30:22;;;;;;;8.40;8.10;;;11.30;99.90;;;;;;5097565;28;20451;-86
2022/11/24 11:33:23;;;;;;;8.30;8.10;;;11.30;99.90;;;;;;5097786;27;20627;-86
2022/11/24 11:36:11;;;;;;;8.03;7.83;;;11.20;1.00;;;;;;5095969;28;20995;-87
2022/11/24 11:38:43;;;;;;;7.87;7.67;;;11.10;1.00;;;;;;5100128;28;20442;-86
2022/11/24 11:41:18;;;;;;;8.40;8.20;;;10.90;1.00;;;;;;5093622;27;20574;-86
2022/11/24 11:43:50;;;;;;;8.63;8.10;;;10.90;1.00;;;;;;5096541;27;20480;-86
2022/11/24 11:46:18;;;;;;;9.23;8.93;;;10.90;1.00;;;;;;5102127;28;20452;-85
2022/11/24 11:48:47;;;;;;;9.70;9.50;;;10.90;1.00;;;;;;5101542;27;20454;-86
2022/11/24 11:51:32;;;;;;;11.23;10.50;;;11.00;1.00;;;;;;5094848;28;20466;-86
2022/11/24 11:54:09;;;;;;;9.43;9.23;;;11.00;1.00;;;;;;5099010;27;20560;-85
2022/11/24 11:56:43;;;;;;;9.67;9.27;;;11.00;1.00;;;;;;5100865;28;20479;-85
2022/11/24 11:59:36;;;;;;;8.10;7.80;;;11.10;1.00;;;;;;5093996;28;20464;-85
2022/11/24 12:02:36;;;;;;;8.70;8.43;;;10.90;99.90;;;;;;5100665;27;20455;-86
2022/11/24 12:05:16;;;;;;;9.30;8.80;;;10.90;1.00;;;;;;5100440;27;21024;-86
2022/11/24 12:07:59;;;;;;;8.57;8.37;;;11.40;1.00;;;;;;5094366;28;20460;-84
2022/11/24 12:10:45;;;;;;;9.50;9.10;;;11.70;1.00;;;;;;5096269;28;20521;-85
2022/11/24 12:13:43;;;;;;;8.40;8.00;;;11.90;99.90;;;;;;5096185;27;20798;-85
2022/11/24 12:16:22;;;;;;;8.00;7.53;;;11.90;99.90;;;;;;5098131;27;20516;-85
2022/11/24 12:19:00;;;;;;;7.77;7.13;;;11.70;99.90;;;;;;5094726;28;21107;-85
2022/11/24 12:21:35;;;;;;;6.97;6.57;;;11.60;99.90;;;;;;5096385;27;20457;-85
2022/11/24 12:24:12;;;;;;;7.60;6.90;;;11.40;99.90;;;;;;5095412;28;20468;-85
2022/11/24 12:26:48;;;;;;;6.60;6.10;;;11.20;99.90;;;;;;5094480;27;20456;-87
2022/11/24 12:29:40;;;;;;;7.20;6.73;;;11.10;99.90;;;;;;5092594;28;20441;-86
2022/11/24 12:32:21;;;;;;;6.87;6.57;;;11.00;99.90;;;;;;5093262;28;20820;-87
2022/11/24 12:34:55;;;;;;;6.00;5.67;;;11.00;99.90;;;;;;5092982;28;20520;-86
2022/11/24 12:37:41;;;;;;;5.80;5.40;;;11.00;99.90;;;;;;5094381;28;20470;-86
2022/11/24 12:40:15;;;;;;;7.30;6.70;;;10.90;99.90;;;;;;5099481;28;20463;-87
2022/11/24 12:42:56;;;;;;;7.67;7.23;;;10.90;99.90;;;;;;5095381;27;20523;-87
2022/11/24 12:45:34;;;;;;;6.10;5.80;;;10.80;99.90;;;;;;5094857;27;20530;-86
2022/11/24 12:48:24;;;;;;;6.67;6.10;;;10.80;99.90;;;;;;5095358;28;20488;-84
2022/11/24 12:50:55;;;;;;;6.70;6.40;;;10.70;99.90;;;;;;5099566;28;20465;-86
2022/11/24 12:53:26;;;;;;;7.23;6.50;;;10.80;99.90;;;;;;5091939;28;20472;-85
2022/11/24 12:55:58;;;;;;;7.43;7.03;;;11.00;99.90;;;;;;5094425;28;20446;-86
2022/11/24 12:58:34;;;;;;;7.70;6.97;;;11.30;99.90;;;;;;5091764;27;20485;-86
2022/11/24 13:01:12;;;;;;;8.13;7.63;;;11.60;99.90;;;;;;5090167;28;20461;-86
2022/11/24 13:03:53;;;;;;;7.10;6.77;;;11.80;99.90;;;;;;5095883;27;20464;-85
2022/11/24 13:06:27;;;;;;;6.97;6.30;;;12.00;99.90;;;;;;5096024;27;20449;-86
2022/11/24 13:08:57;;;;;;;5.70;5.50;;;12.10;99.90;;;;;;5093528;28;20492;-87
2022/11/24 13:11:41;;;;;;;6.10;5.70;;;12.00;99.90;;;;;;5092340;27;20848;-86
2022/11/24 13:14:17;;;;;;;5.60;5.20;;;11.90;99.90;;;;;;5097482;27;20477;-84
2022/11/24 13:16:51;;;;;;;5.60;5.20;;;11.50;99.90;;;;;;5091484;28;20461;-87
2022/11/24 13:19:39;;;;;;;6.30;5.80;;;11.70;99.90;;;;;;5093834;28;20453;-86
2022/11/24 13:22:16;;;;;;;5.53;5.33;;;11.80;99.90;;;;;;5092256;28;20472;-86
2022/11/24 13:24:45;;;;;;;6.67;6.03;;;12.00;99.90;;;;;;5098077;28;20465;-86